BIENTÔT MET'MAP
version 2.0 !

Prévue avant fin octobre,
la nouvelle version sera
plus belle, plus complète
et hébergée sur un serveur
3 fois plus puissant...
et toujours gratuite !


Pas compatible ?
Essayez la version Mobile !

SE CONNECTER : | S'inscrire | Disclaimer | Découvrir Orbifly |
Code OACI :
Lgende : VFR VFR Marginal IFR IFR Intensif IFR Trs Intensif
Visi :
Plafond :
>= 8 km
>= 3000ft
5 8 km
1000 3000 ft
1500m 5 km
500 1000 ft
800 1500m
200 500 ft
< 800m
< 200 ft

METAR - LIBN Lecce Galatine Airport (military) - 05 Apr 2020 13:18 UTC - Data Source NOAA   


- Altitude de l'aérodrome : 156 ft
- Code IATA : LCC
- Pas de NOTAMs connus.


LIBN - Lecce Galatine Airport (military)

Dernier METAR connu : 2015/08/11 07:55 LIBN 110755Z 11007KT 9999 FEW020CB SCT025 30/25 Q1011 RMK BKN BKN080 VIS MIN 9999 WIND THR14 11007KT BLU
Prévision TAF périmée.

Source NOAA


MET'MAP, la Météo Aéronautique d'un coup d'oeil ! - Copyright ORBIFLY Décembre 2007

Développement & Programmation : Alexandra Zaïnal
Co-Développement : Marc-Olivier Méhu
Soutien technique & logistique : Manuel Goepfert
Conception & Financement : Baudouin d'Aumeries